sensor_id;sensor_type;location;lat;lon;timestamp;P1;durP1;ratioP1;P2;durP2;ratioP2
45792;SDS011;31495;42.740;22.908;2023-06-04T00:00:31;6.38;;;4.45;;
45792;SDS011;31495;42.740;22.908;2023-06-04T00:01:31;8.15;;;4.15;;
45792;SDS011;31495;42.740;22.908;2023-06-04T00:02:30;6.40;;;4.38;;
45792;SDS011;31495;42.740;22.908;2023-06-04T00:03:30;5.75;;;4.78;;
45792;SDS011;31495;42.740;22.908;2023-06-04T00:04:30;8.52;;;4.30;;
45792;SDS011;31495;42.740;22.908;2023-06-04T00:05:30;7.68;;;5.07;;
45792;SDS011;31495;42.740;22.908;2023-06-04T00:06:29;6.55;;;4.63;;
45792;SDS011;31495;42.740;22.908;2023-06-04T00:07:28;6.55;;;4.40;;
45792;SDS011;31495;42.740;22.908;2023-06-04T00:08:28;6.20;;;4.07;;
45792;SDS011;31495;42.740;22.908;2023-06-04T00:09:28;6.72;;;3.95;;
45792;SDS011;31495;42.740;22.908;2023-06-04T00:10:27;5.95;;;4.05;;
45792;SDS011;31495;42.740;22.908;2023-06-04T00:11:26;5.72;;;4.00;;
45792;SDS011;31495;42.740;22.908;2023-06-04T00:12:26;6.93;;;4.28;;
45792;SDS011;31495;42.740;22.908;2023-06-04T00:13:25;6.07;;;4.38;;
45792;SDS011;31495;42.740;22.908;2023-06-04T00:14:25;7.57;;;4.53;;
45792;SDS011;31495;42.740;22.908;2023-06-04T00:15:25;5.63;;;3.75;;
45792;SDS011;31495;42.740;22.908;2023-06-04T00:16:25;7.20;;;4.47;;
45792;SDS011;31495;42.740;22.908;2023-06-04T00:17:24;6.72;;;4.00;;
45792;SDS011;31495;42.740;22.908;2023-06-04T00:18:23;6.50;;;3.30;;
45792;SDS011;31495;42.740;22.908;2023-06-04T00:19:23;4.53;;;3.20;;
45792;SDS011;31495;42.740;22.908;2023-06-04T00:20:22;5.28;;;3.50;;
45792;SDS011;31495;42.740;22.908;2023-06-04T00:21:21;5.13;;;3.33;;
45792;SDS011;31495;42.740;22.908;2023-06-04T00:22:21;3.45;;;2.67;;
45792;SDS011;31495;42.740;22.908;2023-06-04T00:23:20;5.13;;;3.42;;
45792;SDS011;31495;42.740;22.908;2023-06-04T00:24:19;4.50;;;2.83;;
45792;SDS011;31495;42.740;22.908;2023-06-04T00:25:19;5.38;;;3.40;;
45792;SDS011;31495;42.740;22.908;2023-06-04T00:26:18;5.53;;;3.40;;
45792;SDS011;31495;42.740;22.908;2023-06-04T00:27:18;16.17;;;3.45;;
45792;SDS011;31495;42.740;22.908;2023-06-04T00:28:17;4.35;;;2.70;;
45792;SDS011;31495;42.740;22.908;2023-06-04T00:29:17;3.92;;;3.00;;
45792;SDS011;31495;42.740;22.908;2023-06-04T00:30:16;4.47;;;2.40;;
45792;SDS011;31495;42.740;22.908;2023-06-04T00:31:15;5.82;;;2.67;;
45792;SDS011;31495;42.740;22.908;2023-06-04T00:32:15;4.32;;;3.05;;
45792;SDS011;31495;42.740;22.908;2023-06-04T00:33:14;4.97;;;2.75;;
45792;SDS011;31495;42.740;22.908;2023-06-04T00:34:14;3.15;;;2.22;;
45792;SDS011;31495;42.740;22.908;2023-06-04T00:35:16;3.83;;;2.50;;
45792;SDS011;31495;42.740;22.908;2023-06-04T00:36:15;3.92;;;2.85;;
45792;SDS011;31495;42.740;22.908;2023-06-04T00:37:14;7.18;;;2.70;;
45792;SDS011;31495;42.740;22.908;2023-06-04T00:38:14;4.05;;;2.80;;
45792;SDS011;31495;42.740;22.908;2023-06-04T00:39:13;4.95;;;2.53;;
45792;SDS011;31495;42.740;22.908;2023-06-04T00:40:13;4.07;;;2.78;;
45792;SDS011;31495;42.740;22.908;2023-06-04T00:41:12;5.13;;;2.65;;
45792;SDS011;31495;42.740;22.908;2023-06-04T00:42:12;5.47;;;3.13;;
45792;SDS011;31495;42.740;22.908;2023-06-04T00:43:11;5.70;;;2.72;;
45792;SDS011;31495;42.740;22.908;2023-06-04T00:44:12;4.50;;;2.90;;
45792;SDS011;31495;42.740;22.908;2023-06-04T00:45:12;4.70;;;3.60;;
45792;SDS011;31495;42.740;22.908;2023-06-04T00:46:12;4.63;;;3.47;;
45792;SDS011;31495;42.740;22.908;2023-06-04T00:47:18;6.13;;;3.03;;
45792;SDS011;31495;42.740;22.908;2023-06-04T00:48:19;4.70;;;2.80;;
45792;SDS011;31495;42.740;22.908;2023-06-04T00:49:20;5.30;;;3.28;;
45792;SDS011;31495;42.740;22.908;2023-06-04T00:50:19;4.25;;;2.83;;
45792;SDS011;31495;42.740;22.908;2023-06-04T00:51:22;5.85;;;3.50;;
45792;SDS011;31495;42.740;22.908;2023-06-04T00:52:22;4.70;;;3.10;;
45792;SDS011;31495;42.740;22.908;2023-06-04T00:53:23;6.25;;;3.70;;
45792;SDS011;31495;42.740;22.908;2023-06-04T00:54:23;4.15;;;2.60;;
45792;SDS011;31495;42.740;22.908;2023-06-04T00:55:23;6.75;;;3.25;;
45792;SDS011;31495;42.740;22.908;2023-06-04T00:56:22;4.70;;;3.50;;
45792;SDS011;31495;42.740;22.908;2023-06-04T00:57:22;5.78;;;3.40;;
45792;SDS011;31495;42.740;22.908;2023-06-04T00:58:22;5.05;;;3.83;;
45792;SDS011;31495;42.740;22.908;2023-06-04T00:59:23;5.63;;;3.35;;
45792;SDS011;31495;42.740;22.908;2023-06-04T01:00:23;10.82;;;3.42;;
45792;SDS011;31495;42.740;22.908;2023-06-04T01:02:39;5.88;;;3.30;;
45792;SDS011;31495;42.740;22.908;2023-06-04T01:03:41;7.07;;;3.72;;
45792;SDS011;31495;42.740;22.908;2023-06-04T01:05:04;4.72;;;3.20;;
45792;SDS011;31495;42.740;22.908;2023-06-04T01:06:28;6.55;;;3.33;;
45792;SDS011;31495;42.740;22.908;2023-06-04T01:07:35;4.43;;;2.83;;
45792;SDS011;31495;42.740;22.908;2023-06-04T01:08:36;4.13;;;3.15;;
45792;SDS011;31495;42.740;22.908;2023-06-04T01:09:36;4.75;;;3.25;;
45792;SDS011;31495;42.740;22.908;2023-06-04T01:10:36;4.75;;;3.42;;
45792;SDS011;31495;42.740;22.908;2023-06-04T01:11:36;5.35;;;3.10;;
45792;SDS011;31495;42.740;22.908;2023-06-04T01:12:40;4.43;;;3.25;;
45792;SDS011;31495;42.740;22.908;2023-06-04T01:13:40;3.78;;;2.45;;
45792;SDS011;31495;42.740;22.908;2023-06-04T01:14:40;5.93;;;3.67;;
45792;SDS011;31495;42.740;22.908;2023-06-04T01:15:39;5.35;;;3.83;;
45792;SDS011;31495;42.740;22.908;2023-06-04T01:16:39;7.07;;;3.55;;
45792;SDS011;31495;42.740;22.908;2023-06-04T01:17:48;9.00;;;3.90;;
45792;SDS011;31495;42.740;22.908;2023-06-04T01:18:50;5.80;;;3.20;;
45792;SDS011;31495;42.740;22.908;2023-06-04T01:21:01;4.90;;;3.85;;
45792;SDS011;31495;42.740;22.908;2023-06-04T01:22:04;5.75;;;3.55;;
45792;SDS011;31495;42.740;22.908;2023-06-04T01:24:10;5.25;;;3.47;;
45792;SDS011;31495;42.740;22.908;2023-06-04T01:26:36;5.00;;;3.50;;
45792;SDS011;31495;42.740;22.908;2023-06-04T01:27:36;5.93;;;3.58;;
45792;SDS011;31495;42.740;22.908;2023-06-04T01:28:39;6.32;;;3.70;;
45792;SDS011;31495;42.740;22.908;2023-06-04T01:29:39;5.55;;;3.70;;
45792;SDS011;31495;42.740;22.908;2023-06-04T01:30:39;5.30;;;3.58;;
45792;SDS011;31495;42.740;22.908;2023-06-04T01:31:45;6.05;;;4.40;;
45792;SDS011;31495;42.740;22.908;2023-06-04T01:32:44;5.22;;;3.63;;
45792;SDS011;31495;42.740;22.908;2023-06-04T01:33:45;6.13;;;3.25;;
45792;SDS011;31495;42.740;22.908;2023-06-04T01:34:45;5.47;;;3.83;;
45792;SDS011;31495;42.740;22.908;2023-06-04T01:35:45;5.88;;;3.88;;
45792;SDS011;31495;42.740;22.908;2023-06-04T01:36:45;5.55;;;3.72;;
45792;SDS011;31495;42.740;22.908;2023-06-04T01:37:44;6.22;;;4.50;;
45792;SDS011;31495;42.740;22.908;2023-06-04T01:38:44;6.05;;;3.70;;
45792;SDS011;31495;42.740;22.908;2023-06-04T01:39:44;6.28;;;3.72;;
45792;SDS011;31495;42.740;22.908;2023-06-04T01:40:45;5.65;;;3.60;;
45792;SDS011;31495;42.740;22.908;2023-06-04T01:41:45;4.60;;;3.65;;
45792;SDS011;31495;42.740;22.908;2023-06-04T01:42:44;4.60;;;3.35;;
45792;SDS011;31495;42.740;22.908;2023-06-04T01:43:44;8.00;;;3.47;;
45792;SDS011;31495;42.740;22.908;2023-06-04T01:44:43;4.25;;;3.38;;
45792;SDS011;31495;42.740;22.908;2023-06-04T01:45:42;5.43;;;3.50;;
45792;SDS011;31495;42.740;22.908;2023-06-04T01:46:42;3.92;;;3.28;;
45792;SDS011;31495;42.740;22.908;2023-06-04T01:47:41;5.20;;;3.85;;
45792;SDS011;31495;42.740;22.908;2023-06-04T01:48:41;5.68;;;3.50;;
45792;SDS011;31495;42.740;22.908;2023-06-04T01:49:41;5.15;;;3.22;;
45792;SDS011;31495;42.740;22.908;2023-06-04T01:50:40;6.10;;;3.20;;
45792;SDS011;31495;42.740;22.908;2023-06-04T01:51:39;3.90;;;2.97;;
45792;SDS011;31495;42.740;22.908;2023-06-04T01:52:39;7.18;;;2.80;;
45792;SDS011;31495;42.740;22.908;2023-06-04T01:53:39;6.55;;;3.38;;
45792;SDS011;31495;42.740;22.908;2023-06-04T01:54:39;6.68;;;3.10;;
45792;SDS011;31495;42.740;22.908;2023-06-04T01:55:40;15.50;;;3.20;;
45792;SDS011;31495;42.740;22.908;2023-06-04T01:56:39;6.72;;;3.40;;
45792;SDS011;31495;42.740;22.908;2023-06-04T01:57:39;4.10;;;2.95;;
45792;SDS011;31495;42.740;22.908;2023-06-04T01:58:39;6.45;;;3.28;;
45792;SDS011;31495;42.740;22.908;2023-06-04T01:59:39;9.65;;;3.20;;
45792;SDS011;31495;42.740;22.908;2023-06-04T02:00:41;4.28;;;3.30;;
45792;SDS011;31495;42.740;22.908;2023-06-04T02:01:42;4.97;;;3.55;;
45792;SDS011;31495;42.740;22.908;2023-06-04T02:02:41;5.43;;;2.90;;
45792;SDS011;31495;42.740;22.908;2023-06-04T02:03:42;4.93;;;3.47;;
45792;SDS011;31495;42.740;22.908;2023-06-04T02:04:42;8.05;;;4.05;;
45792;SDS011;31495;42.740;22.908;2023-06-04T02:05:42;9.10;;;3.70;;
45792;SDS011;31495;42.740;22.908;2023-06-04T02:06:44;5.85;;;3.78;;
45792;SDS011;31495;42.740;22.908;2023-06-04T02:07:44;4.88;;;3.45;;
45792;SDS011;31495;42.740;22.908;2023-06-04T02:08:45;6.20;;;4.07;;
45792;SDS011;31495;42.740;22.908;2023-06-04T02:09:44;5.45;;;3.30;;
45792;SDS011;31495;42.740;22.908;2023-06-04T02:10:44;4.85;;;3.55;;
45792;SDS011;31495;42.740;22.908;2023-06-04T02:11:45;5.80;;;4.30;;
45792;SDS011;31495;42.740;22.908;2023-06-04T02:12:58;5.68;;;4.22;;
45792;SDS011;31495;42.740;22.908;2023-06-04T02:14:05;4.68;;;3.53;;
45792;SDS011;31495;42.740;22.908;2023-06-04T02:15:05;5.45;;;3.65;;
45792;SDS011;31495;42.740;22.908;2023-06-04T02:16:06;6.00;;;4.10;;
45792;SDS011;31495;42.740;22.908;2023-06-04T02:17:05;5.10;;;3.95;;
45792;SDS011;31495;42.740;22.908;2023-06-04T02:18:13;6.70;;;4.47;;
45792;SDS011;31495;42.740;22.908;2023-06-04T02:19:15;7.57;;;3.83;;
45792;SDS011;31495;42.740;22.908;2023-06-04T02:20:17;7.80;;;4.20;;
45792;SDS011;31495;42.740;22.908;2023-06-04T02:21:17;5.53;;;4.28;;
45792;SDS011;31495;42.740;22.908;2023-06-04T02:22:17;5.93;;;4.75;;
45792;SDS011;31495;42.740;22.908;2023-06-04T02:23:18;7.82;;;4.07;;
45792;SDS011;31495;42.740;22.908;2023-06-04T02:24:19;10.20;;;4.72;;
45792;SDS011;31495;42.740;22.908;2023-06-04T02:25:19;8.48;;;4.65;;
45792;SDS011;31495;42.740;22.908;2023-06-04T02:26:19;6.47;;;4.60;;
45792;SDS011;31495;42.740;22.908;2023-06-04T02:27:18;6.70;;;4.00;;
45792;SDS011;31495;42.740;22.908;2023-06-04T02:28:18;6.00;;;4.00;;
45792;SDS011;31495;42.740;22.908;2023-06-04T02:29:17;5.45;;;4.05;;
45792;SDS011;31495;42.740;22.908;2023-06-04T02:30:17;8.50;;;3.63;;
45792;SDS011;31495;42.740;22.908;2023-06-04T02:31:16;8.40;;;4.13;;
45792;SDS011;31495;42.740;22.908;2023-06-04T02:32:16;8.35;;;4.78;;
45792;SDS011;31495;42.740;22.908;2023-06-04T02:33:16;5.53;;;4.10;;
45792;SDS011;31495;42.740;22.908;2023-06-04T02:34:15;7.82;;;4.43;;
45792;SDS011;31495;42.740;22.908;2023-06-04T02:35:15;7.85;;;5.10;;
45792;SDS011;31495;42.740;22.908;2023-06-04T02:36:15;6.10;;;4.32;;
45792;SDS011;31495;42.740;22.908;2023-06-04T02:37:16;8.60;;;4.65;;
45792;SDS011;31495;42.740;22.908;2023-06-04T02:38:15;7.32;;;4.65;;
45792;SDS011;31495;42.740;22.908;2023-06-04T02:39:15;6.10;;;4.35;;
45792;SDS011;31495;42.740;22.908;2023-06-04T02:40:14;7.85;;;4.55;;
45792;SDS011;31495;42.740;22.908;2023-06-04T02:41:14;6.00;;;4.18;;
45792;SDS011;31495;42.740;22.908;2023-06-04T02:42:14;6.18;;;4.43;;
45792;SDS011;31495;42.740;22.908;2023-06-04T02:43:14;7.57;;;4.75;;
45792;SDS011;31495;42.740;22.908;2023-06-04T02:44:14;9.25;;;4.97;;
45792;SDS011;31495;42.740;22.908;2023-06-04T02:45:14;6.82;;;4.47;;
45792;SDS011;31495;42.740;22.908;2023-06-04T02:46:13;6.28;;;4.82;;
45792;SDS011;31495;42.740;22.908;2023-06-04T02:47:13;7.20;;;4.45;;
45792;SDS011;31495;42.740;22.908;2023-06-04T02:48:12;6.63;;;4.55;;
45792;SDS011;31495;42.740;22.908;2023-06-04T02:49:11;7.10;;;4.72;;
45792;SDS011;31495;42.740;22.908;2023-06-04T02:50:15;6.82;;;4.57;;
45792;SDS011;31495;42.740;22.908;2023-06-04T02:51:15;7.20;;;5.28;;
45792;SDS011;31495;42.740;22.908;2023-06-04T02:52:16;5.50;;;4.40;;
45792;SDS011;31495;42.740;22.908;2023-06-04T02:53:15;7.97;;;4.90;;
45792;SDS011;31495;42.740;22.908;2023-06-04T02:54:15;8.38;;;4.97;;
45792;SDS011;31495;42.740;22.908;2023-06-04T02:55:16;13.45;;;5.63;;
45792;SDS011;31495;42.740;22.908;2023-06-04T02:56:15;7.75;;;5.45;;
45792;SDS011;31495;42.740;22.908;2023-06-04T02:57:14;7.40;;;5.00;;
45792;SDS011;31495;42.740;22.908;2023-06-04T02:58:14;8.80;;;5.20;;
45792;SDS011;31495;42.740;22.908;2023-06-04T02:59:15;8.68;;;5.00;;
45792;SDS011;31495;42.740;22.908;2023-06-04T03:00:14;7.53;;;5.25;;
45792;SDS011;31495;42.740;22.908;2023-06-04T03:01:21;7.80;;;5.43;;
45792;SDS011;31495;42.740;22.908;2023-06-04T03:02:21;10.43;;;5.70;;
45792;SDS011;31495;42.740;22.908;2023-06-04T03:03:21;8.07;;;4.93;;
45792;SDS011;31495;42.740;22.908;2023-06-04T03:04:21;6.03;;;4.25;;
45792;SDS011;31495;42.740;22.908;2023-06-04T03:05:20;7.57;;;4.40;;
45792;SDS011;31495;42.740;22.908;2023-06-04T03:06:23;6.30;;;4.35;;
45792;SDS011;31495;42.740;22.908;2023-06-04T03:07:23;11.45;;;5.00;;
45792;SDS011;31495;42.740;22.908;2023-06-04T03:08:23;6.72;;;4.68;;
45792;SDS011;31495;42.740;22.908;2023-06-04T03:09:22;8.23;;;4.43;;
45792;SDS011;31495;42.740;22.908;2023-06-04T03:10:22;5.78;;;4.15;;
45792;SDS011;31495;42.740;22.908;2023-06-04T03:11:21;7.40;;;4.93;;
45792;SDS011;31495;42.740;22.908;2023-06-04T03:12:20;8.38;;;4.13;;
45792;SDS011;31495;42.740;22.908;2023-06-04T03:13:20;21.90;;;4.30;;
45792;SDS011;31495;42.740;22.908;2023-06-04T03:14:19;6.63;;;3.72;;
45792;SDS011;31495;42.740;22.908;2023-06-04T03:15:20;6.78;;;4.18;;
45792;SDS011;31495;42.740;22.908;2023-06-04T03:16:19;6.85;;;4.30;;
45792;SDS011;31495;42.740;22.908;2023-06-04T03:17:20;10.65;;;5.07;;
45792;SDS011;31495;42.740;22.908;2023-06-04T03:18:19;7.85;;;4.57;;
45792;SDS011;31495;42.740;22.908;2023-06-04T03:19:19;6.65;;;4.28;;
45792;SDS011;31495;42.740;22.908;2023-06-04T03:20:19;5.20;;;3.42;;
45792;SDS011;31495;42.740;22.908;2023-06-04T03:21:18;4.28;;;3.00;;
45792;SDS011;31495;42.740;22.908;2023-06-04T03:22:17;4.18;;;2.65;;
45792;SDS011;31495;42.740;22.908;2023-06-04T03:23:17;4.88;;;3.33;;
45792;SDS011;31495;42.740;22.908;2023-06-04T03:24:16;6.53;;;2.60;;
45792;SDS011;31495;42.740;22.908;2023-06-04T03:25:16;5.25;;;2.95;;
45792;SDS011;31495;42.740;22.908;2023-06-04T03:26:16;4.03;;;2.72;;
45792;SDS011;31495;42.740;22.908;2023-06-04T03:27:15;4.97;;;2.35;;
45792;SDS011;31495;42.740;22.908;2023-06-04T03:28:14;4.20;;;2.88;;
45792;SDS011;31495;42.740;22.908;2023-06-04T03:29:14;4.00;;;2.90;;
45792;SDS011;31495;42.740;22.908;2023-06-04T03:30:13;5.05;;;2.92;;
45792;SDS011;31495;42.740;22.908;2023-06-04T03:31:13;7.40;;;3.38;;
45792;SDS011;31495;42.740;22.908;2023-06-04T03:32:12;4.05;;;3.00;;
45792;SDS011;31495;42.740;22.908;2023-06-04T03:33:12;5.13;;;2.90;;
45792;SDS011;31495;42.740;22.908;2023-06-04T03:34:11;5.15;;;2.80;;
45792;SDS011;31495;42.740;22.908;2023-06-04T03:35:10;4.35;;;2.55;;
45792;SDS011;31495;42.740;22.908;2023-06-04T03:36:10;3.53;;;2.60;;
45792;SDS011;31495;42.740;22.908;2023-06-04T03:37:09;3.40;;;2.10;;
45792;SDS011;31495;42.740;22.908;2023-06-04T03:38:09;3.95;;;2.10;;
45792;SDS011;31495;42.740;22.908;2023-06-04T03:39:09;2.97;;;1.77;;
45792;SDS011;31495;42.740;22.908;2023-06-04T03:40:09;2.78;;;1.92;;
45792;SDS011;31495;42.740;22.908;2023-06-04T03:41:09;4.25;;;2.67;;
45792;SDS011;31495;42.740;22.908;2023-06-04T03:42:08;4.45;;;2.53;;
45792;SDS011;31495;42.740;22.908;2023-06-04T03:43:08;2.75;;;1.90;;
45792;SDS011;31495;42.740;22.908;2023-06-04T03:44:09;6.20;;;1.75;;
45792;SDS011;31495;42.740;22.908;2023-06-04T03:45:08;3.25;;;1.98;;
45792;SDS011;31495;42.740;22.908;2023-06-04T03:46:08;3.70;;;1.60;;
45792;SDS011;31495;42.740;22.908;2023-06-04T03:47:07;4.25;;;2.13;;
45792;SDS011;31495;42.740;22.908;2023-06-04T03:48:07;4.55;;;2.58;;
45792;SDS011;31495;42.740;22.908;2023-06-04T03:49:06;3.85;;;2.33;;
45792;SDS011;31495;42.740;22.908;2023-06-04T03:50:06;4.07;;;2.33;;
45792;SDS011;31495;42.740;22.908;2023-06-04T03:51:06;4.18;;;1.90;;
45792;SDS011;31495;42.740;22.908;2023-06-04T03:52:05;3.05;;;1.95;;
45792;SDS011;31495;42.740;22.908;2023-06-04T03:53:05;4.50;;;2.45;;
45792;SDS011;31495;42.740;22.908;2023-06-04T03:54:04;3.60;;;2.15;;
45792;SDS011;31495;42.740;22.908;2023-06-04T03:55:04;3.67;;;2.00;;
45792;SDS011;31495;42.740;22.908;2023-06-04T03:56:04;4.78;;;2.15;;
45792;SDS011;31495;42.740;22.908;2023-06-04T03:57:03;3.40;;;2.45;;
45792;SDS011;31495;42.740;22.908;2023-06-04T03:58:02;3.53;;;2.35;;
45792;SDS011;31495;42.740;22.908;2023-06-04T03:59:02;4.53;;;2.00;;
45792;SDS011;31495;42.740;22.908;2023-06-04T04:00:01;2.72;;;1.80;;
45792;SDS011;31495;42.740;22.908;2023-06-04T04:01:02;2.88;;;1.60;;
45792;SDS011;31495;42.740;22.908;2023-06-04T04:02:03;2.72;;;1.58;;
45792;SDS011;31495;42.740;22.908;2023-06-04T04:03:04;3.45;;;1.65;;
45792;SDS011;31495;42.740;22.908;2023-06-04T04:04:04;3.10;;;2.10;;
45792;SDS011;31495;42.740;22.908;2023-06-04T04:05:04;3.03;;;1.85;;
45792;SDS011;31495;42.740;22.908;2023-06-04T04:06:03;3.58;;;1.80;;
45792;SDS011;31495;42.740;22.908;2023-06-04T04:07:03;4.05;;;2.60;;
45792;SDS011;31495;42.740;22.908;2023-06-04T04:08:03;4.03;;;2.92;;
45792;SDS011;31495;42.740;22.908;2023-06-04T04:09:03;3.38;;;2.53;;
45792;SDS011;31495;42.740;22.908;2023-06-04T04:10:05;2.60;;;1.67;;
45792;SDS011;31495;42.740;22.908;2023-06-04T04:11:04;3.90;;;2.17;;
45792;SDS011;31495;42.740;22.908;2023-06-04T04:12:04;6.22;;;2.60;;
45792;SDS011;31495;42.740;22.908;2023-06-04T04:13:04;2.78;;;1.70;;
45792;SDS011;31495;42.740;22.908;2023-06-04T04:14:03;3.22;;;2.13;;
45792;SDS011;31495;42.740;22.908;2023-06-04T04:15:02;3.30;;;1.98;;
45792;SDS011;31495;42.740;22.908;2023-06-04T04:16:03;3.33;;;2.08;;
45792;SDS011;31495;42.740;22.908;2023-06-04T04:17:03;3.63;;;2.10;;
45792;SDS011;31495;42.740;22.908;2023-06-04T04:18:03;2.70;;;2.20;;
45792;SDS011;31495;42.740;22.908;2023-06-04T04:19:02;3.03;;;1.80;;
45792;SDS011;31495;42.740;22.908;2023-06-04T04:20:02;3.63;;;2.05;;
45792;SDS011;31495;42.740;22.908;2023-06-04T04:21:04;2.60;;;1.60;;
45792;SDS011;31495;42.740;22.908;2023-06-04T04:22:04;5.85;;;2.30;;
45792;SDS011;31495;42.740;22.908;2023-06-04T04:23:04;3.92;;;2.30;;
45792;SDS011;31495;42.740;22.908;2023-06-04T04:24:05;4.25;;;2.60;;
45792;SDS011;31495;42.740;22.908;2023-06-04T04:25:06;3.25;;;2.08;;
45792;SDS011;31495;42.740;22.908;2023-06-04T04:26:07;4.05;;;2.45;;
45792;SDS011;31495;42.740;22.908;2023-06-04T04:27:07;2.67;;;1.75;;
45792;SDS011;31495;42.740;22.908;2023-06-04T04:28:10;3.88;;;1.92;;
45792;SDS011;31495;42.740;22.908;2023-06-04T04:29:09;3.10;;;1.90;;
45792;SDS011;31495;42.740;22.908;2023-06-04T04:30:09;5.13;;;2.78;;
45792;SDS011;31495;42.740;22.908;2023-06-04T04:31:09;10.63;;;2.53;;
45792;SDS011;31495;42.740;22.908;2023-06-04T04:32:09;4.15;;;2.92;;
45792;SDS011;31495;42.740;22.908;2023-06-04T04:33:09;4.10;;;2.60;;
45792;SDS011;31495;42.740;22.908;2023-06-04T04:34:10;4.63;;;2.67;;
45792;SDS011;31495;42.740;22.908;2023-06-04T04:35:09;4.35;;;3.13;;
45792;SDS011;31495;42.740;22.908;2023-06-04T04:36:08;5.28;;;2.75;;
45792;SDS011;31495;42.740;22.908;2023-06-04T04:37:11;9.23;;;4.57;;
45792;SDS011;31495;42.740;22.908;2023-06-04T04:38:11;3.60;;;2.60;;
45792;SDS011;31495;42.740;22.908;2023-06-04T04:39:11;3.90;;;2.53;;
45792;SDS011;31495;42.740;22.908;2023-06-04T04:40:11;3.63;;;2.70;;
45792;SDS011;31495;42.740;22.908;2023-06-04T04:41:11;3.58;;;2.63;;
45792;SDS011;31495;42.740;22.908;2023-06-04T04:42:11;4.57;;;2.65;;
45792;SDS011;31495;42.740;22.908;2023-06-04T04:43:10;7.57;;;2.90;;
45792;SDS011;31495;42.740;22.908;2023-06-04T04:44:11;4.32;;;2.70;;
45792;SDS011;31495;42.740;22.908;2023-06-04T04:45:10;4.15;;;2.85;;
45792;SDS011;31495;42.740;22.908;2023-06-04T04:46:10;5.28;;;3.67;;
45792;SDS011;31495;42.740;22.908;2023-06-04T04:47:09;6.40;;;2.88;;
45792;SDS011;31495;42.740;22.908;2023-06-04T04:48:09;6.28;;;3.33;;
45792;SDS011;31495;42.740;22.908;2023-06-04T04:49:09;7.82;;;3.78;;
45792;SDS011;31495;42.740;22.908;2023-06-04T04:50:09;5.72;;;3.08;;
45792;SDS011;31495;42.740;22.908;2023-06-04T04:51:09;6.50;;;3.83;;
45792;SDS011;31495;42.740;22.908;2023-06-04T04:52:09;6.95;;;4.22;;
45792;SDS011;31495;42.740;22.908;2023-06-04T04:53:08;6.53;;;4.60;;
45792;SDS011;31495;42.740;22.908;2023-06-04T04:54:08;7.05;;;4.65;;
45792;SDS011;31495;42.740;22.908;2023-06-04T04:55:07;7.97;;;5.13;;
45792;SDS011;31495;42.740;22.908;2023-06-04T04:56:07;7.82;;;4.95;;
45792;SDS011;31495;42.740;22.908;2023-06-04T04:57:06;9.60;;;5.03;;
45792;SDS011;31495;42.740;22.908;2023-06-04T04:58:06;6.05;;;4.68;;
45792;SDS011;31495;42.740;22.908;2023-06-04T04:59:06;6.18;;;4.63;;
45792;SDS011;31495;42.740;22.908;2023-06-04T05:00:06;7.68;;;5.47;;
45792;SDS011;31495;42.740;22.908;2023-06-04T05:01:08;7.50;;;4.97;;
45792;SDS011;31495;42.740;22.908;2023-06-04T05:02:07;7.10;;;5.05;;
45792;SDS011;31495;42.740;22.908;2023-06-04T05:03:07;11.50;;;5.88;;
45792;SDS011;31495;42.740;22.908;2023-06-04T05:04:06;10.52;;;6.10;;
45792;SDS011;31495;42.740;22.908;2023-06-04T05:05:06;9.77;;;5.45;;
45792;SDS011;31495;42.740;22.908;2023-06-04T05:06:06;8.65;;;5.53;;
45792;SDS011;31495;42.740;22.908;2023-06-04T05:07:05;14.68;;;5.72;;
45792;SDS011;31495;42.740;22.908;2023-06-04T05:08:05;9.32;;;6.05;;
45792;SDS011;31495;42.740;22.908;2023-06-04T05:09:04;7.63;;;5.05;;
45792;SDS011;31495;42.740;22.908;2023-06-04T05:10:04;7.35;;;5.00;;
45792;SDS011;31495;42.740;22.908;2023-06-04T05:11:04;9.52;;;6.18;;
45792;SDS011;31495;42.740;22.908;2023-06-04T05:12:03;8.02;;;5.45;;
45792;SDS011;31495;42.740;22.908;2023-06-04T05:13:03;7.05;;;5.07;;
45792;SDS011;31495;42.740;22.908;2023-06-04T05:14:05;8.88;;;5.65;;
45792;SDS011;31495;42.740;22.908;2023-06-04T05:15:05;10.32;;;4.93;;
45792;SDS011;31495;42.740;22.908;2023-06-04T05:16:04;7.10;;;4.75;;
45792;SDS011;31495;42.740;22.908;2023-06-04T05:17:05;6.85;;;4.45;;
45792;SDS011;31495;42.740;22.908;2023-06-04T05:18:05;7.00;;;4.43;;
45792;SDS011;31495;42.740;22.908;2023-06-04T05:19:05;7.38;;;4.88;;
45792;SDS011;31495;42.740;22.908;2023-06-04T05:20:04;8.70;;;4.95;;
45792;SDS011;31495;42.740;22.908;2023-06-04T05:21:04;7.32;;;4.50;;
45792;SDS011;31495;42.740;22.908;2023-06-04T05:22:03;6.47;;;4.05;;
45792;SDS011;31495;42.740;22.908;2023-06-04T05:23:03;8.90;;;4.38;;
45792;SDS011;31495;42.740;22.908;2023-06-04T05:24:03;5.85;;;3.97;;
45792;SDS011;31495;42.740;22.908;2023-06-04T05:25:03;6.90;;;4.07;;
45792;SDS011;31495;42.740;22.908;2023-06-04T05:26:05;6.53;;;4.75;;
45792;SDS011;31495;42.740;22.908;2023-06-04T05:27:05;6.25;;;4.57;;
45792;SDS011;31495;42.740;22.908;2023-06-04T05:28:04;7.28;;;5.22;;
45792;SDS011;31495;42.740;22.908;2023-06-04T05:29:06;6.90;;;5.10;;
45792;SDS011;31495;42.740;22.908;2023-06-04T05:30:06;10.88;;;5.35;;
45792;SDS011;31495;42.740;22.908;2023-06-04T05:31:06;8.68;;;5.60;;
45792;SDS011;31495;42.740;22.908;2023-06-04T05:32:07;13.38;;;6.20;;
45792;SDS011;31495;42.740;22.908;2023-06-04T05:33:07;7.43;;;5.53;;
45792;SDS011;31495;42.740;22.908;2023-06-04T05:34:16;8.43;;;6.47;;
45792;SDS011;31495;42.740;22.908;2023-06-04T05:35:17;7.38;;;6.05;;
45792;SDS011;31495;42.740;22.908;2023-06-04T05:36:16;10.40;;;6.72;;
45792;SDS011;31495;42.740;22.908;2023-06-04T05:37:16;8.77;;;6.15;;
45792;SDS011;31495;42.740;22.908;2023-06-04T05:38:15;7.90;;;6.20;;
45792;SDS011;31495;42.740;22.908;2023-06-04T05:39:17;7.32;;;5.25;;
45792;SDS011;31495;42.740;22.908;2023-06-04T05:40:18;8.63;;;5.57;;
45792;SDS011;31495;42.740;22.908;2023-06-04T05:41:17;8.02;;;5.60;;
45792;SDS011;31495;42.740;22.908;2023-06-04T05:42:17;8.52;;;5.05;;
45792;SDS011;31495;42.740;22.908;2023-06-04T05:43:16;8.73;;;5.80;;
45792;SDS011;31495;42.740;22.908;2023-06-04T05:44:16;8.70;;;5.15;;
45792;SDS011;31495;42.740;22.908;2023-06-04T05:45:15;10.93;;;6.43;;
45792;SDS011;31495;42.740;22.908;2023-06-04T05:46:15;9.98;;;5.97;;
45792;SDS011;31495;42.740;22.908;2023-06-04T05:47:15;10.88;;;5.18;;
45792;SDS011;31495;42.740;22.908;2023-06-04T05:49:15;8.25;;;5.60;;
45792;SDS011;31495;42.740;22.908;2023-06-04T05:50:16;8.25;;;6.00;;
45792;SDS011;31495;42.740;22.908;2023-06-04T05:51:15;9.48;;;5.68;;
45792;SDS011;31495;42.740;22.908;2023-06-04T05:52:15;9.50;;;5.75;;
45792;SDS011;31495;42.740;22.908;2023-06-04T05:53:14;8.52;;;6.03;;
45792;SDS011;31495;42.740;22.908;2023-06-04T05:54:14;10.98;;;5.88;;
45792;SDS011;31495;42.740;22.908;2023-06-04T05:55:13;8.00;;;6.07;;
45792;SDS011;31495;42.740;22.908;2023-06-04T05:56:13;10.02;;;7.72;;
45792;SDS011;31495;42.740;22.908;2023-06-04T05:57:12;10.23;;;6.57;;
45792;SDS011;31495;42.740;22.908;2023-06-04T05:58:12;10.35;;;5.93;;
45792;SDS011;31495;42.740;22.908;2023-06-04T05:59:11;11.27;;;5.10;;
45792;SDS011;31495;42.740;22.908;2023-06-04T06:00:11;7.22;;;5.40;;
45792;SDS011;31495;42.740;22.908;2023-06-04T06:01:12;5.90;;;4.85;;
45792;SDS011;31495;42.740;22.908;2023-06-04T06:02:12;6.05;;;4.65;;
45792;SDS011;31495;42.740;22.908;2023-06-04T06:03:12;9.00;;;5.72;;